Time,TemperatureF,DewpointF,PressureIn,WindDirection,WindDirectionDegrees,WindSpeedMPH,WindSpeedGustMPH,Humidity,HourlyPrecipIn,Conditions,Clouds,dailyrainin,SoftwareType,DateUTC
2013-09-08 00:02:00,52.0,50.0,-100.00,WSW,255,1.0,6.0,91,-99.99,,,-99.99,,2013-09-08 00:02:00,
2013-09-08 00:11:00,52.0,50.0,-100.00,WSW,255,1.0,6.0,91,-99.99,,,-99.99,,2013-09-08 00:11:00,
2013-09-08 00:22:00,52.0,51.0,-100.00,NNW,345,6.0,7.0,96,-99.99,,,-99.99,,2013-09-08 00:22:00,
2013-09-08 00:32:00,52.0,51.0,-100.00,NNW,345,6.0,7.0,96,-99.99,,,-99.99,,2013-09-08 00:32:00,
2013-09-08 00:42:00,52.0,51.0,-100.00,NNW,345,6.0,7.0,96,-99.99,,,-99.99,,2013-09-08 00:42:00,
2013-09-08 00:52:00,52.0,52.0,-100.00,North,350,4.0,8.0,98,-99.99,,,-99.99,,2013-09-08 00:52:00,
2013-09-08 01:01:00,52.0,52.0,-100.00,North,350,4.0,8.0,98,-99.99,,,-99.99,,2013-09-08 01:01:00,
2013-09-08 01:11:00,52.0,52.0,-100.00,North,350,4.0,8.0,98,-99.99,,,-99.99,,2013-09-08 01:11:00,
2013-09-08 01:22:00,52.0,51.0,-100.00,NW,325,1.0,6.0,97,-99.99,,,-99.99,,2013-09-08 01:22:00,
2013-09-08 01:32:00,52.0,51.0,-100.00,NW,325,1.0,6.0,97,-99.99,,,-99.99,,2013-09-08 01:32:00,
2013-09-08 01:42:00,52.0,51.0,-100.00,NW,325,1.0,6.0,97,-99.99,,,-99.99,,2013-09-08 01:42:00,
2013-09-08 01:52:00,51.0,51.0,-100.00,NNW,335,6.0,7.0,97,-99.99,,,-99.99,,2013-09-08 01:52:00,
2013-09-08 02:02:00,51.0,51.0,-100.00,NNW,335,6.0,7.0,97,-99.99,,,-99.99,,2013-09-08 02:02:00,
2013-09-08 02:11:00,51.0,51.0,-100.00,NNW,335,6.0,7.0,97,-99.99,,,-99.99,,2013-09-08 02:11:00,
2013-09-08 02:22:00,51.0,51.0,-100.00,West,280,2.0,4.0,98,-99.99,,,-99.99,,2013-09-08 02:22:00,
2013-09-08 02:32:00,51.0,51.0,-100.00,West,280,2.0,4.0,98,-99.99,,,-99.99,,2013-09-08 02:32:00,
2013-09-08 02:43:00,51.0,51.0,-100.00,West,280,2.0,4.0,98,-99.99,,,-99.99,,2013-09-08 02:43:00,
2013-09-08 02:52:00,51.0,51.0,-100.00,NNW,345,4.0,6.0,98,-99.99,,,-99.99,,2013-09-08 02:52:00,
2013-09-08 03:02:00,51.0,51.0,-100.00,NNW,345,4.0,6.0,98,-99.99,,,-99.99,,2013-09-08 03:02:00,
2013-09-08 03:12:00,51.0,51.0,-100.00,NNW,345,4.0,6.0,98,-99.99,,,-99.99,,2013-09-08 03:12:00,
2013-09-08 03:22:00,51.0,51.0,-100.00,North,10,1.0,4.0,98,-99.99,,,-99.99,,2013-09-08 03:22:00,
2013-09-08 03:34:00,51.0,51.0,-100.00,North,10,1.0,4.0,98,-99.99,,,-99.99,,2013-09-08 03:34:00,
2013-09-08 03:44:00,51.0,51.0,-100.00,North,10,1.0,4.0,98,-99.99,,,-99.99,,2013-09-08 03:44:00,
2013-09-08 03:54:00,51.0,51.0,-100.00,SSE,150,2.0,2.0,98,-99.99,,,-99.99,,2013-09-08 03:54:00,
2013-09-08 04:02:00,-999.0,-99.9,-100.00,SSE,150,2.0,2.0,-999,-99.99,,,-99.99,,2013-09-08 04:02:00,
2013-09-08 04:14:00,51.0,51.0,-100.00,SSE,150,2.0,2.0,98,-99.99,,,-99.99,,2013-09-08 04:14:00,
2013-09-08 04:24:00,52.0,51.0,-100.00,SSE,155,3.0,5.0,98,-99.99,,,-99.99,,2013-09-08 04:24:00,
2013-09-08 04:34:00,52.0,51.0,-100.00,SSE,155,3.0,5.0,98,-99.99,,,-99.99,,2013-09-08 04:34:00,
2013-09-08 04:43:00,52.0,51.0,-100.00,SSE,155,3.0,5.0,98,-99.99,,,-99.99,,2013-09-08 04:43:00,
2013-09-08 04:53:00,52.0,50.0,-100.00,SSE,160,5.0,10.0,93,-99.99,,,-99.99,,2013-09-08 04:53:00,
2013-09-08 05:03:00,52.0,50.0,-100.00,SSE,160,5.0,10.0,93,-99.99,,,-99.99,,2013-09-08 05:03:00,
2013-09-08 05:12:00,52.0,50.0,-100.00,SSE,160,5.0,10.0,93,-99.99,,,-99.99,,2013-09-08 05:12:00,
2013-09-08 05:23:00,51.0,49.0,-100.00,SE,145,11.0,13.0,92,-99.99,,,-99.99,,2013-09-08 05:23:00,
2013-09-08 05:34:00,51.0,49.0,-100.00,SE,145,11.0,13.0,92,-99.99,,,-99.99,,2013-09-08 05:34:00,
2013-09-08 05:43:00,51.0,49.0,-100.00,SE,145,11.0,13.0,92,-99.99,,,-99.99,,2013-09-08 05:43:00,
2013-09-08 05:52:00,50.0,49.0,-100.00,SE,145,9.0,12.0,93,-99.99,,,-99.99,,2013-09-08 05:52:00,
2013-09-08 06:03:00,50.0,49.0,-100.00,SE,145,9.0,12.0,93,-99.99,,,-99.99,,2013-09-08 06:03:00,
2013-09-08 06:13:00,50.0,49.0,-100.00,SE,145,9.0,12.0,93,-99.99,,,-99.99,,2013-09-08 06:13:00,
2013-09-08 06:21:00,49.0,48.0,-100.00,SSE,160,11.0,13.0,96,-99.99,,,-99.99,,2013-09-08 06:21:00,
2013-09-08 06:33:00,49.0,48.0,-100.00,SSE,160,11.0,13.0,96,-99.99,,,-99.99,,2013-09-08 06:33:00,
2013-09-08 06:42:00,49.0,48.0,-100.00,SSE,160,11.0,13.0,96,-99.99,,,-99.99,,2013-09-08 06:42:00,
2013-09-08 06:53:00,49.0,49.0,-100.00,SSE,160,9.0,13.0,97,-99.99,,,-99.99,,2013-09-08 06:53:00,
2013-09-08 07:01:00,49.0,49.0,-100.00,SSE,160,9.0,13.0,97,-99.99,,,-99.99,,2013-09-08 07:01:00,
2013-09-08 07:12:00,49.0,49.0,-100.00,SSE,160,9.0,13.0,97,-99.99,,,-99.99,,2013-09-08 07:12:00,
2013-09-08 07:23:00,49.0,49.0,-100.00,SSE,160,9.0,12.0,97,-99.99,,,-99.99,,2013-09-08 07:23:00,
2013-09-08 07:32:00,49.0,49.0,-100.00,SSE,160,9.0,12.0,97,-99.99,,,-99.99,,2013-09-08 07:32:00,
2013-09-08 07:42:00,49.0,49.0,-100.00,SSE,160,9.0,12.0,97,-99.99,,,-99.99,,2013-09-08 07:42:00,
2013-09-08 07:52:00,49.0,49.0,-100.00,SSE,165,3.0,7.0,97,-99.99,,,-99.99,,2013-09-08 07:52:00,
2013-09-08 08:02:00,49.0,49.0,-100.00,SSE,165,3.0,7.0,97,-99.99,,,-99.99,,2013-09-08 08:02:00,
2013-09-08 08:11:00,49.0,49.0,-100.00,SSE,165,3.0,7.0,97,-99.99,,,-99.99,,2013-09-08 08:11:00,
2013-09-08 08:22:00,49.0,48.0,-100.00,SSW,205,3.0,6.0,97,-99.99,,,-99.99,,2013-09-08 08:22:00,
2013-09-08 08:32:00,49.0,48.0,-100.00,SSW,205,3.0,6.0,97,-99.99,,,-99.99,,2013-09-08 08:32:00,
2013-09-08 08:42:00,49.0,48.0,-100.00,SSW,205,3.0,6.0,97,-99.99,,,-99.99,,2013-09-08 08:42:00,
2013-09-08 08:52:00,49.0,48.0,-100.00,SSW,195,11.0,13.0,97,-99.99,,,-99.99,,2013-09-08 08:52:00,
2013-09-08 09:02:00,49.0,48.0,-100.00,SSW,195,11.0,13.0,97,-99.99,,,-99.99,,2013-09-08 09:02:00,
2013-09-08 09:11:00,49.0,48.0,-100.00,SSW,195,11.0,13.0,97,-99.99,,,-99.99,,2013-09-08 09:11:00,
2013-09-08 09:22:00,51.0,44.0,-100.00,South,185,13.0,19.0,77,-99.99,,,-99.99,,2013-09-08 09:22:00,
2013-09-08 09:33:00,51.0,44.0,-100.00,South,185,13.0,19.0,77,-99.99,,,-99.99,,2013-09-08 09:33:00,
2013-09-08 09:43:00,51.0,44.0,-100.00,South,185,13.0,19.0,77,-99.99,,,-99.99,,2013-09-08 09:43:00,
2013-09-08 09:53:00,51.0,44.0,-100.00,South,185,13.0,17.0,76,-99.99,,,-99.99,,2013-09-08 09:53:00,
2013-09-08 10:03:00,51.0,44.0,-100.00,South,185,13.0,17.0,76,-99.99,,,-99.99,,2013-09-08 10:03:00,
2013-09-08 10:12:00,51.0,44.0,-100.00,South,185,13.0,17.0,76,-99.99,,,-99.99,,2013-09-08 10:12:00,
2013-09-08 10:23:00,49.0,45.0,-100.00,South,170,14.0,20.0,84,-99.99,,,-99.99,,2013-09-08 10:23:00,
2013-09-08 10:33:00,49.0,45.0,-100.00,South,170,14.0,20.0,84,-99.99,,,-99.99,,2013-09-08 10:33:00,
2013-09-08 10:42:00,49.0,45.0,-100.00,South,170,14.0,20.0,84,-99.99,,,-99.99,,2013-09-08 10:42:00,
2013-09-08 10:53:00,50.0,43.0,-100.00,South,175,12.0,19.0,75,-99.99,,,-99.99,,2013-09-08 10:53:00,
2013-09-08 11:02:00,50.0,43.0,-100.00,South,175,12.0,19.0,75,-99.99,,,-99.99,,2013-09-08 11:02:00,
2013-09-08 11:12:00,50.0,43.0,-100.00,South,175,12.0,19.0,75,-99.99,,,-99.99,,2013-09-08 11:12:00,
2013-09-08 11:21:00,50.0,42.0,-100.00,South,180,11.0,19.0,74,-99.99,,,-99.99,,2013-09-08 11:21:00,
2013-09-08 11:33:00,50.0,42.0,-100.00,South,180,11.0,19.0,74,-99.99,,,-99.99,,2013-09-08 11:33:00,
2013-09-08 11:42:00,50.0,42.0,-100.00,South,180,11.0,19.0,74,-99.99,,,-99.99,,2013-09-08 11:42:00,
2013-09-08 11:52:00,49.0,42.0,-100.00,South,175,14.0,21.0,76,-99.99,,,-99.99,,2013-09-08 11:52:00,
2013-09-08 12:02:00,49.0,42.0,-100.00,South,175,14.0,21.0,76,-99.99,,,-99.99,,2013-09-08 12:02:00,
2013-09-08 12:12:00,49.0,42.0,-100.00,South,175,14.0,21.0,76,-99.99,,,-99.99,,2013-09-08 12:12:00,
2013-09-08 12:21:00,49.0,41.0,-100.00,South,180,14.0,19.0,73,-99.99,,,-99.99,,2013-09-08 12:21:00,
2013-09-08 12:32:00,49.0,41.0,-100.00,South,180,14.0,19.0,73,-99.99,,,-99.99,,2013-09-08 12:32:00,
2013-09-08 12:42:00,49.0,41.0,-100.00,South,180,14.0,19.0,73,-99.99,,,-99.99,,2013-09-08 12:42:00,
2013-09-08 12:52:00,49.0,41.0,-100.00,South,170,19.0,26.0,74,-99.99,,,-99.99,,2013-09-08 12:52:00,
2013-09-08 13:01:00,49.0,41.0,-100.00,South,170,19.0,26.0,74,-99.99,,,-99.99,,2013-09-08 13:01:00,
2013-09-08 13:11:00,49.0,41.0,-100.00,South,170,19.0,26.0,74,-99.99,,,-99.99,,2013-09-08 13:11:00,
2013-09-08 13:22:00,49.0,42.0,-100.00,South,170,17.0,26.0,76,-99.99,,,-99.99,,2013-09-08 13:22:00,
2013-09-08 13:32:00,49.0,42.0,-100.00,South,170,17.0,26.0,76,-99.99,,,-99.99,,2013-09-08 13:32:00,
2013-09-08 13:42:00,49.0,42.0,-100.00,South,170,17.0,26.0,76,-99.99,,,-99.99,,2013-09-08 13:42:00,
2013-09-08 13:52:00,49.0,41.0,-100.00,South,175,16.0,22.0,75,-99.99,,,-99.99,,2013-09-08 13:52:00,
2013-09-08 14:02:00,49.0,41.0,-100.00,South,175,16.0,22.0,75,-99.99,,,-99.99,,2013-09-08 14:02:00,
2013-09-08 14:11:00,49.0,41.0,-100.00,South,175,16.0,22.0,75,-99.99,,,-99.99,,2013-09-08 14:11:00,
2013-09-08 14:22:00,49.0,41.0,-100.00,South,180,12.0,26.0,74,-99.99,,,-99.99,,2013-09-08 14:22:00,
2013-09-08 14:31:00,49.0,41.0,-100.00,South,180,12.0,26.0,74,-99.99,,,-99.99,,2013-09-08 14:31:00,
2013-09-08 14:42:00,49.0,41.0,-100.00,South,180,12.0,26.0,74,-99.99,,,-99.99,,2013-09-08 14:42:00,
2013-09-08 14:52:00,46.0,42.0,-100.00,SSE,165,12.0,12.0,84,-99.99,,,-99.99,,2013-09-08 14:52:00,
2013-09-08 15:02:00,46.0,42.0,-100.00,SSE,165,12.0,12.0,84,-99.99,,,-99.99,,2013-09-08 15:02:00,
2013-09-08 15:12:00,46.0,42.0,-100.00,SSE,165,12.0,12.0,84,-99.99,,,-99.99,,2013-09-08 15:12:00,
2013-09-08 15:23:00,46.0,42.0,-100.00,SSE,155,16.0,17.0,85,-99.99,,,-99.99,,2013-09-08 15:23:00,
2013-09-08 15:34:00,46.0,42.0,-100.00,SSE,155,16.0,17.0,85,-99.99,,,-99.99,,2013-09-08 15:34:00,
2013-09-08 15:45:00,46.0,42.0,-100.00,SSE,155,16.0,17.0,85,-99.99,,,-99.99,,2013-09-08 15:45:00,
2013-09-08 15:54:00,47.0,43.0,-100.00,SSE,155,12.0,14.0,86,-99.99,,,-99.99,,2013-09-08 15:54:00,
2013-09-08 16:04:00,47.0,43.0,-100.00,SSE,155,12.0,14.0,86,-99.99,,,-99.99,,2013-09-08 16:04:00,
2013-09-08 16:14:00,47.0,43.0,-100.00,SSE,155,12.0,14.0,86,-99.99,,,-99.99,,2013-09-08 16:14:00,
2013-09-08 16:23:00,46.0,43.0,-100.00,SSE,160,12.0,14.0,86,-99.99,,,-99.99,,2013-09-08 16:23:00,
2013-09-08 16:34:00,46.0,43.0,-100.00,SSE,160,12.0,14.0,86,-99.99,,,-99.99,,2013-09-08 16:34:00,
2013-09-08 16:43:00,46.0,43.0,-100.00,SSE,160,12.0,14.0,86,-99.99,,,-99.99,,2013-09-08 16:43:00,
2013-09-08 16:53:00,47.0,43.0,-100.00,South,175,9.0,14.0,84,-99.99,,,-99.99,,2013-09-08 16:53:00,
2013-09-08 17:03:00,47.0,43.0,-100.00,South,175,9.0,14.0,84,-99.99,,,-99.99,,2013-09-08 17:03:00,
2013-09-08 17:12:00,47.0,43.0,-100.00,South,175,9.0,14.0,84,-99.99,,,-99.99,,2013-09-08 17:12:00,
2013-09-08 17:23:00,48.0,45.0,-100.00,SSE,150,9.0,17.0,90,-99.99,,,-99.99,,2013-09-08 17:23:00,
2013-09-08 17:34:00,48.0,45.0,-100.00,SSE,150,9.0,17.0,90,-99.99,,,-99.99,,2013-09-08 17:34:00,
2013-09-08 17:43:00,48.0,45.0,-100.00,SSE,150,9.0,17.0,90,-99.99,,,-99.99,,2013-09-08 17:43:00,
2013-09-08 17:53:00,48.0,45.0,-100.00,SSE,160,13.0,16.0,89,-99.99,,,-99.99,,2013-09-08 17:53:00,
2013-09-08 18:02:00,48.0,45.0,-100.00,SSE,160,13.0,16.0,89,-99.99,,,-99.99,,2013-09-08 18:02:00,
2013-09-08 18:13:00,48.0,45.0,-100.00,SSE,160,13.0,16.0,89,-99.99,,,-99.99,,2013-09-08 18:13:00,
2013-09-08 18:22:00,49.0,47.0,-100.00,SSE,165,11.0,16.0,90,-99.99,,,-99.99,,2013-09-08 18:22:00,
2013-09-08 18:32:00,49.0,47.0,-100.00,SSE,165,11.0,16.0,90,-99.99,,,-99.99,,2013-09-08 18:32:00,
2013-09-08 18:42:00,49.0,47.0,-100.00,SSE,165,11.0,16.0,90,-99.99,,,-99.99,,2013-09-08 18:42:00,
2013-09-08 18:52:00,50.0,48.0,-100.00,SSE,160,14.0,19.0,92,-99.99,,,-99.99,,2013-09-08 18:52:00,
2013-09-08 19:01:00,50.0,48.0,-100.00,SSE,160,14.0,19.0,92,-99.99,,,-99.99,,2013-09-08 19:01:00,
2013-09-08 19:12:00,50.0,48.0,-100.00,SSE,160,14.0,19.0,92,-99.99,,,-99.99,,2013-09-08 19:12:00,
2013-09-08 19:22:00,50.0,49.0,-100.00,SSE,160,10.0,16.0,94,-99.99,,,-99.99,,2013-09-08 19:22:00,
2013-09-08 19:32:00,50.0,49.0,-100.00,SSE,160,10.0,16.0,94,-99.99,,,-99.99,,2013-09-08 19:32:00,
2013-09-08 19:42:00,50.0,49.0,-100.00,SSE,160,10.0,16.0,94,-99.99,,,-99.99,,2013-09-08 19:42:00,
2013-09-08 19:52:00,50.0,49.0,-100.00,SE,145,12.0,17.0,97,-99.99,,,-99.99,,2013-09-08 19:52:00,
2013-09-08 20:03:00,50.0,49.0,-100.00,SE,145,12.0,17.0,97,-99.99,,,-99.99,,2013-09-08 20:03:00,
2013-09-08 20:11:00,50.0,49.0,-100.00,SE,145,12.0,17.0,97,-99.99,,,-99.99,,2013-09-08 20:11:00,
2013-09-08 20:22:00,51.0,50.0,-100.00,SSE,165,9.0,14.0,95,-99.99,,,-99.99,,2013-09-08 20:22:00,
2013-09-08 20:32:00,51.0,50.0,-100.00,SSE,165,9.0,14.0,95,-99.99,,,-99.99,,2013-09-08 20:32:00,
2013-09-08 20:42:00,51.0,50.0,-100.00,SSE,165,9.0,14.0,95,-99.99,,,-99.99,,2013-09-08 20:42:00,
2013-09-08 20:53:00,51.0,49.0,-100.00,SSE,160,9.0,14.0,92,-99.99,,,-99.99,,2013-09-08 20:53:00,
2013-09-08 21:02:00,51.0,49.0,-100.00,SSE,160,9.0,14.0,92,-99.99,,,-99.99,,2013-09-08 21:02:00,
2013-09-08 21:12:00,51.0,49.0,-100.00,SSE,160,9.0,14.0,92,-99.99,,,-99.99,,2013-09-08 21:12:00,
2013-09-08 21:22:00,51.0,49.0,-100.00,SSW,210,9.0,17.0,94,-99.99,,,-99.99,,2013-09-08 21:22:00,
2013-09-08 21:34:00,51.0,49.0,-100.00,SSW,210,9.0,17.0,94,-99.99,,,-99.99,,2013-09-08 21:34:00,
2013-09-08 21:43:00,51.0,49.0,-100.00,SSW,210,9.0,17.0,94,-99.99,,,-99.99,,2013-09-08 21:43:00,
2013-09-08 21:54:00,51.0,49.0,-100.00,South,185,13.0,21.0,92,-99.99,,,-99.99,,2013-09-08 21:54:00,
2013-09-08 22:04:00,51.0,49.0,-100.00,South,185,13.0,21.0,92,-99.99,,,-99.99,,2013-09-08 22:04:00,
2013-09-08 22:13:00,51.0,49.0,-100.00,South,185,13.0,21.0,92,-99.99,,,-99.99,,2013-09-08 22:13:00,
2013-09-08 22:24:00,52.0,50.0,-100.00,SW,230,9.0,23.0,91,-99.99,,,-99.99,,2013-09-08 22:24:00,
2013-09-08 22:33:00,52.0,50.0,-100.00,SW,230,9.0,23.0,91,-99.99,,,-99.99,,2013-09-08 22:33:00,
2013-09-08 22:43:00,52.0,50.0,-100.00,SW,230,9.0,23.0,91,-99.99,,,-99.99,,2013-09-08 22:43:00,
2013-09-08 22:53:00,53.0,50.0,-100.00,South,190,11.0,17.0,90,-99.99,,,-99.99,,2013-09-08 22:53:00,
2013-09-08 23:04:00,53.0,50.0,-100.00,South,190,11.0,17.0,90,-99.99,,,-99.99,,2013-09-08 23:04:00,
2013-09-08 23:12:00,53.0,50.0,-100.00,South,190,11.0,17.0,90,-99.99,,,-99.99,,2013-09-08 23:12:00,
2013-09-08 23:22:00,53.0,50.0,-100.00,SSW,195,7.0,14.0,90,-99.99,,,-99.99,,2013-09-08 23:22:00,
2013-09-08 23:34:00,53.0,50.0,-100.00,SSW,195,7.0,14.0,90,-99.99,,,-99.99,,2013-09-08 23:34:00,
2013-09-08 23:42:00,53.0,50.0,-100.00,SSW,195,7.0,14.0,90,-99.99,,,-99.99,,2013-09-08 23:42:00,
2013-09-08 23:52:00,52.0,50.0,-100.00,SSW,195,6.0,17.0,90,-99.99,,,-99.99,,2013-09-08 23:52:00,